createdAt,value
2019-03-27T00:00:59.744Z,75.60
2019-03-27T00:01:59.725Z,75.60
2019-03-27T00:02:59.703Z,75.60
2019-03-27T00:03:59.682Z,75.51
2019-03-27T00:04:59.670Z,75.42
2019-03-27T00:05:59.648Z,75.51
2019-03-27T00:06:59.625Z,75.60
2019-03-27T00:07:59.609Z,75.70
2019-03-27T00:08:59.589Z,75.60
2019-03-27T00:09:59.566Z,75.42
2019-03-27T00:10:59.549Z,75.70
2019-03-27T00:11:59.534Z,75.70
2019-03-27T00:12:59.522Z,75.98
2019-03-27T00:13:59.487Z,75.60
2019-03-27T00:15:11.990Z,75.51
2019-03-27T00:15:59.454Z,75.51
2019-03-27T00:16:59.434Z,75.60
2019-03-27T00:17:59.417Z,75.60
2019-03-27T00:18:59.400Z,75.60
2019-03-27T00:19:59.378Z,75.98
2019-03-27T00:20:59.358Z,75.79
2019-03-27T00:21:59.341Z,75.60
2019-03-27T00:22:59.328Z,75.60
2019-03-27T00:23:59.304Z,75.89
2019-03-27T00:24:59.287Z,75.70
2019-03-27T00:25:59.264Z,75.70
2019-03-27T00:26:59.249Z,76.08
2019-03-27T00:27:59.225Z,75.98
2019-03-27T00:28:59.209Z,76.08
2019-03-27T00:29:59.195Z,76.17
2019-03-27T00:30:59.209Z,76.46
2019-03-27T00:31:59.148Z,76.27
2019-03-27T00:32:59.139Z,76.17
2019-03-27T00:33:59.109Z,76.36
2019-03-27T00:34:59.093Z,75.98
2019-03-27T00:35:59.074Z,76.08
2019-03-27T00:36:59.058Z,76.46
2019-03-27T00:37:59.029Z,76.74
2019-03-27T00:38:59.017Z,76.61
2019-03-27T00:39:58.996Z,76.42
2019-03-27T00:40:58.976Z,76.70
2019-03-27T00:41:58.971Z,76.61
2019-03-27T00:42:58.939Z,76.89
2019-03-27T00:43:58.918Z,76.89
2019-03-27T00:44:58.899Z,76.89
2019-03-27T00:45:58.884Z,76.99
2019-03-27T00:46:58.861Z,77.18
2019-03-27T00:47:58.842Z,76.99
2019-03-27T00:48:58.821Z,76.80
2019-03-27T00:49:58.805Z,76.99
2019-03-27T00:50:58.783Z,77.27
2019-03-27T00:51:58.765Z,77.37
2019-03-27T00:52:58.740Z,76.80
2019-03-27T00:53:58.724Z,77.65
2019-03-27T00:54:58.709Z,77.51
2019-03-27T00:55:58.683Z,77.23
2019-03-27T00:56:58.668Z,77.61
2019-03-27T00:57:58.649Z,77.61
2019-03-27T00:58:58.624Z,77.33
2019-03-27T00:59:58.609Z,77.14
2019-03-27T01:00:58.588Z,77.51
2019-03-27T01:01:58.570Z,77.51
2019-03-27T01:02:58.545Z,77.51
2019-03-27T01:03:58.525Z,77.33
2019-03-27T01:04:58.511Z,77.70
2019-03-27T01:05:58.490Z,77.99
2019-03-27T01:06:58.466Z,77.80
2019-03-27T01:07:58.451Z,77.51
2019-03-27T01:08:58.428Z,77.89
2019-03-27T01:09:58.408Z,77.80
2019-03-27T01:10:58.389Z,78.27
2019-03-27T01:11:58.370Z,77.99
2019-03-27T01:12:58.355Z,77.80
2019-03-27T01:13:58.336Z,77.89
2019-03-27T01:14:58.312Z,78.23
2019-03-27T01:15:58.297Z,78.14
2019-03-27T01:16:58.272Z,78.14
2019-03-27T01:17:58.254Z,78.23
2019-03-27T01:18:58.235Z,78.33
2019-03-27T01:19:58.217Z,78.33
2019-03-27T01:20:58.214Z,78.23
2019-03-27T01:21:58.173Z,78.23
2019-03-27T01:22:58.151Z,78.14
2019-03-27T01:23:58.134Z,78.14
2019-03-27T01:24:58.112Z,78.05
2019-03-27T01:25:58.095Z,78.05
2019-03-27T01:26:58.072Z,77.95
2019-03-27T01:27:58.051Z,78.42
2019-03-27T01:28:58.023Z,78.23
2019-03-27T01:29:58.011Z,78.23
2019-03-27T01:30:57.988Z,78.80
2019-03-27T01:31:57.973Z,78.90
2019-03-27T01:32:57.949Z,78.99
2019-03-27T01:33:57.934Z,78.90
2019-03-27T01:34:57.913Z,78.90
2019-03-27T01:35:57.892Z,78.61
2019-03-27T01:36:57.870Z,78.71
2019-03-27T01:37:57.853Z,78.61
2019-03-27T01:38:57.887Z,78.61
2019-03-27T01:39:57.808Z,78.80
2019-03-27T01:40:57.791Z,78.71
2019-03-27T01:41:57.783Z,78.71
2019-03-27T01:42:57.753Z,78.80
2019-03-27T01:43:57.731Z,78.71
2019-03-27T01:44:57.709Z,78.80
2019-03-27T01:45:57.690Z,79.09
2019-03-27T01:46:57.669Z,78.90
2019-03-27T01:47:57.649Z,78.90
2019-03-27T01:48:57.629Z,78.71
2019-03-27T01:49:57.613Z,78.80
2019-03-27T01:50:57.588Z,78.99
2019-03-27T01:51:57.569Z,78.99
2019-03-27T01:52:57.551Z,78.80
2019-03-27T01:53:57.533Z,78.90
2019-03-27T01:54:57.503Z,78.90
2019-03-27T01:55:57.487Z,78.90
2019-03-27T01:56:57.469Z,78.90
2019-03-27T01:57:57.447Z,79.09
2019-03-27T01:58:57.423Z,79.33
2019-03-27T01:59:57.407Z,79.14
2019-03-27T02:00:57.386Z,79.24
2019-03-27T02:01:57.366Z,79.05
2019-03-27T02:02:57.345Z,78.86
2019-03-27T02:03:57.325Z,78.95
2019-03-27T02:04:57.304Z,78.95
2019-03-27T02:05:57.284Z,79.05
2019-03-27T02:06:57.264Z,79.05
2019-03-27T02:07:57.244Z,79.05
2019-03-27T02:08:57.222Z,79.24
2019-03-27T02:09:57.203Z,79.14
2019-03-27T02:10:57.197Z,79.14
2019-03-27T02:11:57.187Z,79.14
2019-03-27T02:12:57.139Z,79.14
2019-03-27T02:13:57.121Z,78.95
2019-03-27T02:14:57.101Z,78.95
2019-03-27T02:16:06.612Z,78.67
2019-03-27T02:16:57.058Z,78.95
2019-03-27T02:17:57.038Z,79.24
2019-03-27T02:18:57.021Z,79.05
2019-03-27T02:19:56.998Z,79.14
2019-03-27T02:20:56.979Z,79.05
2019-03-27T02:21:56.960Z,79.43
2019-03-27T02:22:56.943Z,79.24
2019-03-27T02:23:56.919Z,79.90
2019-03-27T02:24:56.889Z,79.80
2019-03-27T02:25:56.884Z,79.90
2019-03-27T02:26:56.854Z,79.61
2019-03-27T02:27:56.836Z,79.61
2019-03-27T02:28:56.816Z,79.61
2019-03-27T02:29:56.798Z,79.71
2019-03-27T02:30:56.774Z,79.61
2019-03-27T02:31:56.754Z,79.80
2019-03-27T02:32:56.733Z,79.61
2019-03-27T02:33:56.714Z,79.61
2019-03-27T02:34:56.691Z,79.71
2019-03-27T02:35:56.670Z,79.52
2019-03-27T02:36:56.650Z,79.61
2019-03-27T02:37:56.634Z,79.80
2019-03-27T02:38:56.614Z,79.61
2019-03-27T02:39:56.592Z,80.08
2019-03-27T02:40:56.577Z,80.08
2019-03-27T02:41:56.548Z,80.18
2019-03-27T02:42:56.527Z,79.90
2019-03-27T02:43:56.520Z,80.18
2019-03-27T02:44:56.489Z,79.99
2019-03-27T02:45:56.469Z,79.90
2019-03-27T02:46:56.453Z,80.08
2019-03-27T02:47:56.427Z,80.37
2019-03-27T02:48:56.404Z,80.41
2019-03-27T02:49:56.386Z,79.94
2019-03-27T02:50:56.369Z,80.37
2019-03-27T02:51:56.346Z,80.32
2019-03-27T02:52:56.326Z,79.94
2019-03-27T02:53:56.305Z,80.41
2019-03-27T02:54:56.286Z,80.69
2019-03-27T02:55:56.263Z,80.22
2019-03-27T02:56:56.244Z,80.04
2019-03-27T02:57:56.229Z,80.32
2019-03-27T02:58:56.206Z,80.32
2019-03-27T02:59:56.181Z,80.32
2019-03-27T03:00:56.159Z,80.32
2019-03-27T03:01:56.145Z,80.22
2019-03-27T03:02:56.130Z,80.22
2019-03-27T03:03:56.095Z,80.22
2019-03-27T03:04:56.080Z,80.60
2019-03-27T03:05:56.070Z,80.32
2019-03-27T03:06:56.054Z,80.32
2019-03-27T03:07:56.027Z,80.32
2019-03-27T03:08:56.005Z,80.74
2019-03-27T03:09:55.983Z,80.17
2019-03-27T03:10:55.962Z,80.74
2019-03-27T03:11:55.950Z,80.17
2019-03-27T03:12:55.922Z,80.45
2019-03-27T03:13:55.902Z,80.36
2019-03-27T03:14:55.885Z,80.74
2019-03-27T03:15:55.872Z,80.45
2019-03-27T03:16:55.850Z,80.36
2019-03-27T03:17:55.828Z,80.36
2019-03-27T03:18:55.810Z,80.55
2019-03-27T03:19:55.785Z,80.45
2019-03-27T03:20:55.765Z,80.36
2019-03-27T03:21:55.745Z,80.36
2019-03-27T03:22:55.737Z,80.36
2019-03-27T03:23:55.703Z,80.36
2019-03-27T03:24:55.687Z,80.36
2019-03-27T03:25:55.666Z,80.77
2019-03-27T03:26:55.647Z,80.68
2019-03-27T03:27:55.637Z,80.87
2019-03-27T03:28:55.608Z,80.83
2019-03-27T03:29:55.590Z,80.58
2019-03-27T03:30:55.562Z,80.68
2019-03-27T03:31:55.553Z,80.68
2019-03-27T03:32:55.534Z,80.68
2019-03-27T03:33:55.523Z,80.68
2019-03-27T03:34:55.614Z,80.58
2019-03-27T03:35:55.488Z,80.68
2019-03-27T03:36:55.492Z,80.58
2019-03-27T03:37:55.457Z,80.68
2019-03-27T03:38:55.417Z,80.58
2019-03-27T03:39:55.416Z,80.68
2019-03-27T03:40:55.379Z,80.68
2019-03-27T03:41:55.361Z,80.49
2019-03-27T03:42:55.336Z,80.58
2019-03-27T03:43:55.319Z,80.68
2019-03-27T03:44:55.299Z,80.40
2019-03-27T03:45:55.278Z,80.49
2019-03-27T03:47:00.014Z,80.68
2019-03-27T03:47:55.239Z,80.30
2019-03-27T03:48:55.218Z,80.44
2019-03-27T03:49:55.202Z,80.44
2019-03-27T03:50:55.192Z,80.34
2019-03-27T03:51:55.160Z,80.53
2019-03-27T03:52:55.145Z,80.72
2019-03-27T03:53:55.123Z,80.72
2019-03-27T03:54:55.102Z,80.72
2019-03-27T03:55:55.084Z,80.53
2019-03-27T03:56:55.073Z,80.72
2019-03-27T03:57:55.045Z,80.72
2019-03-27T03:58:55.030Z,80.63
2019-03-27T03:59:55.008Z,80.53
2019-03-27T04:00:54.991Z,80.82
2019-03-27T04:01:54.968Z,80.82
2019-03-27T04:02:54.956Z,80.72
2019-03-27T04:03:54.935Z,80.82
2019-03-27T04:04:54.912Z,80.72
2019-03-27T04:05:54.897Z,80.72
2019-03-27T04:06:54.875Z,80.72
2019-03-27T04:07:54.854Z,80.82
2019-03-27T04:08:54.838Z,80.82
2019-03-27T04:09:54.826Z,80.63
2019-03-27T04:10:54.800Z,80.82
2019-03-27T04:11:54.779Z,80.44
2019-03-27T04:12:54.767Z,80.91
2019-03-27T04:13:54.745Z,80.82
2019-03-27T04:14:54.723Z,80.82
2019-03-27T04:15:54.703Z,80.91
2019-03-27T04:16:54.682Z,81.10
2019-03-27T04:17:54.668Z,81.01
2019-03-27T04:18:54.643Z,81.10
2019-03-27T04:19:54.625Z,80.82
2019-03-27T04:20:54.613Z,80.82
2019-03-27T04:21:54.597Z,80.91
2019-03-27T04:22:54.569Z,81.01
2019-03-27T04:23:54.548Z,81.01
2019-03-27T04:24:54.531Z,81.01
2019-03-27T04:26:08.967Z,81.10
2019-03-27T04:26:54.505Z,81.20
2019-03-27T04:27:54.472Z,81.20
2019-03-27T04:28:54.454Z,81.20
2019-03-27T04:29:54.434Z,81.01
2019-03-27T04:30:54.415Z,81.01
2019-03-27T04:31:54.397Z,80.82
2019-03-27T04:32:54.381Z,81.10
2019-03-27T04:33:54.357Z,81.10
2019-03-27T04:34:54.339Z,81.10
2019-03-27T04:35:54.346Z,80.72
2019-03-27T04:36:54.311Z,81.10
2019-03-27T04:37:54.283Z,81.20
2019-03-27T04:38:54.263Z,81.10
2019-03-27T04:39:54.245Z,81.10
2019-03-27T04:40:54.224Z,81.20
2019-03-27T04:41:54.210Z,81.20
2019-03-27T04:42:54.185Z,81.01
2019-03-27T04:43:54.168Z,81.01
2019-03-27T04:44:54.152Z,81.10
2019-03-27T04:45:54.129Z,81.29
2019-03-27T04:46:54.110Z,81.38
2019-03-27T04:47:54.096Z,81.48
2019-03-27T04:48:54.075Z,81.57
2019-03-27T04:49:54.053Z,81.20
2019-03-27T04:50:54.033Z,81.76
2019-03-27T04:51:54.047Z,81.29
2019-03-27T04:52:53.997Z,81.67
2019-03-27T04:53:54.001Z,81.48
2019-03-27T04:54:53.958Z,81.57
2019-03-27T04:55:53.940Z,81.48
2019-03-27T04:56:53.919Z,81.67
2019-03-27T04:57:53.900Z,81.38
2019-03-27T04:58:53.883Z,81.86
2019-03-27T04:59:53.864Z,81.86
2019-03-27T05:00:53.845Z,81.57
2019-03-27T05:01:53.826Z,82.05
2019-03-27T05:02:53.803Z,81.76
2019-03-27T05:03:53.784Z,81.57
2019-03-27T05:04:53.765Z,81.76
2019-03-27T05:05:53.747Z,81.67
2019-03-27T05:06:53.731Z,81.76
2019-03-27T05:07:53.717Z,81.76
2019-03-27T05:08:53.691Z,82.05
2019-03-27T05:09:53.671Z,82.05
2019-03-27T05:10:53.652Z,82.14
2019-03-27T05:11:53.634Z,82.24
2019-03-27T05:12:53.611Z,82.05
2019-03-27T05:13:53.597Z,81.72
2019-03-27T05:14:53.581Z,81.72
2019-03-27T05:15:53.556Z,81.92
2019-03-27T05:16:53.537Z,82.39
2019-03-27T05:17:53.514Z,81.76
2019-03-27T05:18:53.498Z,82.39
2019-03-27T05:19:53.475Z,81.72
2019-03-27T05:20:53.454Z,82.43
2019-03-27T05:21:53.438Z,82.67
2019-03-27T05:22:53.421Z,82.52
2019-03-27T05:23:53.399Z,82.39
2019-03-27T05:24:53.380Z,82.39
2019-03-27T05:25:53.361Z,82.39
2019-03-27T05:26:53.339Z,82.57
2019-03-27T05:27:53.325Z,82.71
2019-03-27T05:28:53.304Z,82.62
2019-03-27T05:29:53.313Z,82.39
2019-03-27T05:30:53.264Z,82.67
2019-03-27T05:31:53.245Z,82.67
2019-03-27T05:32:53.225Z,82.57
2019-03-27T05:33:53.206Z,82.48
2019-03-27T05:34:53.188Z,82.67
2019-03-27T05:35:53.169Z,82.67
2019-03-27T05:36:53.150Z,82.48
2019-03-27T05:37:53.123Z,82.57
2019-03-27T05:38:53.109Z,82.57
2019-03-27T05:39:53.096Z,82.39
2019-03-27T05:40:53.070Z,82.39
2019-03-27T05:41:53.051Z,82.57
2019-03-27T05:43:00.561Z,82.29
2019-03-27T05:43:53.042Z,82.39
2019-03-27T05:44:52.995Z,82.39
2019-03-27T05:45:52.976Z,82.20
2019-03-27T05:46:52.961Z,82.57
2019-03-27T05:47:59.373Z,82.48
2019-03-27T05:48:52.915Z,82.57
2019-03-27T05:49:52.902Z,82.86
2019-03-27T05:50:52.882Z,82.86
2019-03-27T05:51:52.857Z,82.86
2019-03-27T05:52:52.837Z,82.95
2019-03-27T05:53:52.817Z,82.76
2019-03-27T05:54:52.801Z,82.95
2019-03-27T05:55:52.777Z,83.14
2019-03-27T05:56:52.760Z,83.05
2019-03-27T05:57:52.740Z,83.24
2019-03-27T05:58:52.722Z,83.33
2019-03-27T05:59:52.721Z,83.33
2019-03-27T06:00:52.679Z,83.52
2019-03-27T06:01:52.665Z,83.05
2019-03-27T06:02:52.640Z,83.05
2019-03-27T06:03:52.622Z,83.33
2019-03-27T06:04:52.604Z,83.14
2019-03-27T06:05:52.582Z,83.05
2019-03-27T06:06:52.565Z,82.95
2019-03-27T06:07:52.545Z,83.33
2019-03-27T06:08:52.522Z,82.95
2019-03-27T06:09:52.500Z,83.33
2019-03-27T06:10:52.493Z,83.14
2019-03-27T06:11:52.465Z,83.24
2019-03-27T06:12:52.450Z,83.14
2019-03-27T06:13:52.461Z,83.05
2019-03-27T06:14:52.411Z,83.05
2019-03-27T06:15:52.388Z,83.18
2019-03-27T06:16:52.378Z,83.56
2019-03-27T06:17:52.351Z,83.37
2019-03-27T06:18:52.330Z,83.37
2019-03-27T06:19:52.310Z,83.37
2019-03-27T06:20:52.294Z,83.47
2019-03-27T06:21:52.274Z,83.56
2019-03-27T06:22:52.255Z,83.28
2019-03-27T06:23:52.234Z,83.28
2019-03-27T06:24:52.215Z,83.37
2019-03-27T06:25:52.199Z,83.09
2019-03-27T06:26:52.176Z,83.28
2019-03-27T06:27:52.167Z,83.18
2019-03-27T06:28:52.143Z,83.37
2019-03-27T06:29:52.119Z,83.09
2019-03-27T06:30:52.108Z,83.18
2019-03-27T06:31:52.081Z,83.42
2019-03-27T06:32:52.067Z,83.42
2019-03-27T06:33:52.042Z,83.32
2019-03-27T06:34:52.027Z,83.61
2019-03-27T06:35:52.011Z,83.23
2019-03-27T06:36:51.989Z,83.13
2019-03-27T06:37:51.978Z,83.13
2019-03-27T06:38:51.958Z,83.04
2019-03-27T06:39:51.941Z,82.98
2019-03-27T06:40:51.915Z,83.08
2019-03-27T06:41:51.896Z,82.98
2019-03-27T06:42:51.879Z,82.98
2019-03-27T06:43:51.869Z,82.70
2019-03-27T06:44:51.840Z,82.89
2019-03-27T06:45:51.820Z,82.70
2019-03-27T06:46:51.804Z,82.70
2019-03-27T06:47:51.787Z,82.70
2019-03-27T06:48:51.768Z,82.98
2019-03-27T06:49:51.750Z,82.51
2019-03-27T06:50:51.735Z,82.36
2019-03-27T06:51:51.714Z,82.55
2019-03-27T06:52:51.694Z,82.74
2019-03-27T06:53:51.676Z,82.74
2019-03-27T06:54:51.660Z,82.55
2019-03-27T06:55:51.640Z,82.55
2019-03-27T06:56:51.622Z,82.74
2019-03-27T06:57:51.603Z,82.65
2019-03-27T06:58:54.789Z,82.08
2019-03-27T06:59:51.569Z,82.17
2019-03-27T07:00:51.550Z,82.17
2019-03-27T07:01:51.532Z,81.98
2019-03-27T07:02:51.513Z,82.27
2019-03-27T07:03:51.498Z,82.03
2019-03-27T07:04:51.478Z,82.03
2019-03-27T07:05:51.459Z,82.03
2019-03-27T07:06:51.442Z,82.21
2019-03-27T07:07:51.430Z,81.74
2019-03-27T07:08:51.415Z,82.21
2019-03-27T07:09:51.395Z,82.12
2019-03-27T07:10:51.376Z,82.03
2019-03-27T07:11:51.355Z,82.03
2019-03-27T07:12:51.338Z,82.03
2019-03-27T07:13:51.322Z,82.21
2019-03-27T07:14:51.301Z,81.84
2019-03-27T07:15:51.295Z,81.74
2019-03-27T07:16:51.268Z,81.55
2019-03-27T07:17:51.249Z,81.74
2019-03-27T07:18:51.231Z,81.93
2019-03-27T07:19:51.218Z,81.65
2019-03-27T07:20:51.197Z,81.45
2019-03-27T07:21:51.193Z,81.55
2019-03-27T07:22:51.165Z,81.17
2019-03-27T07:23:51.145Z,81.40
2019-03-27T07:24:51.129Z,81.49
2019-03-27T07:25:51.112Z,81.21
2019-03-27T07:26:51.094Z,81.30
2019-03-27T07:27:51.077Z,81.30
2019-03-27T07:28:51.059Z,81.21
2019-03-27T07:29:51.045Z,81.12
2019-03-27T07:30:51.029Z,80.93
2019-03-27T07:31:51.009Z,80.83
2019-03-27T07:32:50.993Z,80.74
2019-03-27T07:33:50.975Z,80.96
2019-03-27T07:34:50.957Z,80.96
2019-03-27T07:35:50.945Z,80.96
2019-03-27T07:36:50.922Z,80.77
2019-03-27T07:37:50.908Z,81.16
2019-03-27T07:38:50.895Z,80.68
2019-03-27T07:39:50.875Z,80.30
2019-03-27T07:40:50.861Z,80.49
2019-03-27T07:41:50.844Z,80.02
2019-03-27T07:42:50.827Z,80.15
2019-03-27T07:43:50.811Z,80.05
2019-03-27T07:44:50.800Z,80.24
2019-03-27T07:45:50.778Z,80.24
2019-03-27T07:46:50.762Z,79.86
2019-03-27T07:47:50.743Z,79.39
2019-03-27T07:48:54.087Z,79.30
2019-03-27T07:49:50.718Z,79.39
2019-03-27T07:50:50.695Z,79.43
2019-03-27T07:51:50.681Z,79.33
2019-03-27T07:52:50.666Z,79.05
2019-03-27T07:53:50.650Z,79.24
2019-03-27T07:54:50.635Z,78.96
2019-03-27T07:55:50.618Z,79.62
2019-03-27T07:56:50.602Z,79.43
2019-03-27T07:57:50.586Z,78.57
2019-03-27T07:58:50.573Z,78.38
2019-03-27T07:59:50.556Z,78.42
2019-03-27T08:00:50.541Z,78.42
2019-03-27T08:01:50.527Z,78.04
2019-03-27T08:02:50.516Z,77.76
2019-03-27T08:03:50.495Z,77.66
2019-03-27T08:04:50.479Z,77.76
2019-03-27T08:05:50.470Z,77.56
2019-03-27T08:06:50.444Z,77.28
2019-03-27T08:07:50.439Z,77.37
2019-03-27T08:08:50.419Z,77.37
2019-03-27T08:09:50.407Z,77.22
2019-03-27T08:10:50.387Z,77.51
2019-03-27T08:11:50.379Z,76.94
2019-03-27T08:12:50.366Z,76.37
2019-03-27T08:13:50.347Z,76.56
2019-03-27T08:14:50.334Z,75.99
2019-03-27T08:15:50.315Z,76.12
2019-03-27T08:16:50.304Z,76.21
2019-03-27T08:17:50.287Z,75.55
2019-03-27T08:18:50.273Z,75.45
2019-03-27T08:19:50.258Z,75.59
2019-03-27T08:20:50.250Z,74.63
2019-03-27T08:21:50.230Z,74.06
2019-03-27T08:22:50.216Z,73.77
2019-03-27T08:23:50.203Z,74.54
2019-03-27T08:24:50.187Z,73.68
2019-03-27T08:25:50.174Z,73.39
2019-03-27T08:26:50.160Z,73.24
2019-03-27T08:27:50.146Z,72.86
2019-03-27T08:28:50.138Z,72.67
2019-03-27T08:29:50.119Z,72.86
2019-03-27T08:30:50.105Z,73.05
2019-03-27T08:31:50.092Z,72.51
2019-03-27T08:32:50.077Z,71.75
2019-03-27T08:33:50.066Z,71.56
2019-03-27T08:34:50.050Z,71.50
2019-03-27T08:35:50.037Z,71.50
2019-03-27T08:36:50.026Z,70.73
2019-03-27T08:37:50.013Z,70.58
2019-03-27T08:38:49.997Z,70.67
2019-03-27T08:39:49.988Z,70.10
2019-03-27T08:40:49.973Z,69.66
2019-03-27T08:41:49.962Z,69.66
2019-03-27T08:42:49.948Z,69.27
2019-03-27T08:43:49.935Z,68.13
2019-03-27T08:44:49.920Z,67.75
2019-03-27T08:45:49.915Z,66.50
2019-03-27T08:46:49.896Z,66.31
2019-03-27T08:47:49.882Z,67.02
2019-03-27T08:48:49.873Z,67.21
2019-03-27T08:49:49.859Z,66.73
2019-03-27T08:50:49.846Z,67.05
2019-03-27T08:51:49.844Z,66.57
2019-03-27T08:52:49.820Z,66.09
2019-03-27T08:53:49.810Z,65.52
2019-03-27T08:54:49.798Z,65.08
2019-03-27T08:55:49.786Z,64.98
2019-03-27T08:56:49.773Z,65.01
2019-03-27T08:57:49.762Z,64.15
2019-03-27T08:58:49.752Z,63.67
2019-03-27T08:59:49.738Z,62.43
2019-03-27T09:00:49.727Z,62.33
2019-03-27T09:01:49.722Z,62.23
2019-03-27T09:02:49.704Z,61.69
2019-03-27T09:03:49.692Z,60.44
2019-03-27T09:04:49.678Z,60.16
2019-03-27T09:05:49.669Z,60.44
2019-03-27T09:06:49.656Z,60.64
2019-03-27T09:07:49.644Z,60.28
2019-03-27T09:08:49.638Z,60.09
2019-03-27T09:09:49.624Z,59.42
2019-03-27T09:10:49.614Z,59.42
2019-03-27T09:11:49.602Z,59.33
2019-03-27T09:12:49.590Z,58.37
2019-03-27T09:13:49.580Z,58.17
2019-03-27T09:14:49.567Z,57.70
2019-03-27T09:15:49.559Z,57.12
2019-03-27T09:16:49.546Z,57.21
2019-03-27T09:17:49.539Z,56.64
2019-03-27T09:18:49.529Z,56.35
2019-03-27T09:19:49.512Z,56.54
2019-03-27T09:20:49.503Z,57.31
2019-03-27T09:21:49.493Z,56.93
2019-03-27T09:22:49.475Z,55.68
2019-03-27T09:23:49.468Z,55.87
2019-03-27T09:24:49.460Z,55.49
2019-03-27T09:25:49.447Z,55.40
2019-03-27T09:26:49.434Z,55.30
2019-03-27T09:27:49.426Z,55.71
2019-03-27T09:28:49.412Z,55.42
2019-03-27T09:29:49.402Z,54.88
2019-03-27T09:30:49.393Z,54.97
2019-03-27T09:31:49.395Z,54.90
2019-03-27T09:32:49.374Z,55.12
2019-03-27T09:33:49.362Z,54.67
2019-03-27T09:34:49.348Z,53.61
2019-03-27T09:35:49.375Z,51.98
2019-03-27T09:36:49.329Z,51.21
2019-03-27T09:37:49.320Z,50.15
2019-03-27T09:38:49.310Z,49.48
2019-03-27T09:39:49.301Z,49.67
2019-03-27T09:40:49.292Z,49.87
2019-03-27T09:41:49.283Z,49.67
2019-03-27T09:42:49.271Z,49.38
2019-03-27T09:43:49.260Z,49.19
2019-03-27T09:44:49.252Z,49.10
2019-03-27T09:45:49.245Z,49.60
2019-03-27T09:46:49.232Z,48.93
2019-03-27T09:47:49.222Z,48.95
2019-03-27T09:48:49.216Z,48.57
2019-03-27T09:49:50.108Z,47.44
2019-03-27T09:50:49.192Z,46.86
2019-03-27T09:51:49.189Z,46.57
2019-03-27T09:52:49.179Z,46.19
2019-03-27T09:53:49.173Z,46.01
2019-03-27T09:54:49.158Z,45.63
2019-03-27T09:55:49.151Z,45.63
2019-03-27T09:56:49.141Z,44.76
2019-03-27T09:57:49.134Z,44.76
2019-03-27T09:58:49.124Z,44.67
2019-03-27T09:59:49.115Z,43.61
2019-03-27T10:00:49.289Z,43.80
2019-03-27T10:01:49.098Z,43.71
2019-03-27T10:02:49.092Z,43.71
2019-03-27T10:03:49.082Z,43.32
2019-03-27T10:04:49.119Z,43.05
2019-03-27T10:05:49.067Z,42.47
2019-03-27T10:06:49.060Z,42.76
2019-03-27T10:07:49.051Z,42.76
2019-03-27T10:08:49.044Z,42.57
2019-03-27T10:09:50.444Z,42.49
2019-03-27T10:10:49.026Z,42.49
2019-03-27T10:11:49.019Z,42.30
2019-03-27T10:12:49.012Z,41.55
2019-03-27T10:13:49.002Z,40.49
2019-03-27T10:14:48.997Z,39.72
2019-03-27T10:15:48.989Z,39.79
2019-03-27T10:16:48.982Z,39.70
2019-03-27T10:17:48.974Z,39.91
2019-03-27T10:18:48.968Z,39.91
2019-03-27T10:20:02.516Z,39.26
2019-03-27T10:20:48.955Z,39.16
2019-03-27T10:21:48.945Z,39.64
2019-03-27T10:22:48.942Z,39.57
2019-03-27T10:23:48.930Z,38.21
2019-03-27T10:24:48.925Z,38.33
2019-03-27T10:25:48.921Z,36.88
2019-03-27T10:26:48.911Z,36.69
2019-03-27T10:27:48.905Z,36.22
2019-03-27T10:28:48.897Z,36.13
2019-03-27T10:29:48.894Z,36.03
2019-03-27T10:30:48.887Z,36.03
2019-03-27T10:31:48.880Z,36.15
2019-03-27T10:32:48.875Z,35.57
2019-03-27T10:33:48.869Z,34.42
2019-03-27T10:34:48.865Z,34.13
2019-03-27T10:35:48.858Z,34.34
2019-03-27T10:36:48.856Z,34.15
2019-03-27T10:37:48.849Z,33.57
2019-03-27T10:38:48.843Z,32.89
2019-03-27T10:39:48.840Z,33.17
2019-03-27T10:40:48.833Z,32.76
2019-03-27T10:41:48.831Z,32.26
2019-03-27T10:42:48.824Z,32.24
2019-03-27T10:43:48.818Z,32.04
2019-03-27T10:44:48.808Z,32.31
2019-03-27T10:45:48.803Z,32.87
2019-03-27T10:46:48.797Z,33.07
2019-03-27T10:47:48.789Z,33.44
2019-03-27T10:48:52.823Z,33.44
2019-03-27T10:49:48.776Z,33.23
2019-03-27T10:50:48.770Z,33.12
2019-03-27T10:51:48.758Z,32.90
2019-03-27T10:52:48.753Z,33.28
2019-03-27T10:53:48.744Z,33.66
2019-03-27T10:54:48.733Z,34.51
2019-03-27T10:55:48.725Z,34.49
2019-03-27T10:56:48.719Z,34.97
2019-03-27T10:57:48.708Z,35.26
2019-03-27T10:58:48.700Z,35.72
2019-03-27T10:59:48.688Z,36.01
2019-03-27T11:00:48.707Z,36.18
2019-03-27T11:01:48.670Z,36.76
2019-03-27T11:02:48.663Z,36.55
2019-03-27T11:03:48.650Z,37.03
2019-03-27T11:04:48.643Z,37.13
2019-03-27T11:05:48.630Z,37.03
2019-03-27T11:06:48.650Z,37.41
2019-03-27T11:07:48.610Z,37.30
2019-03-27T11:08:48.599Z,37.87
2019-03-27T11:09:48.583Z,38.26
2019-03-27T11:10:48.590Z,37.89
2019-03-27T11:11:48.564Z,38.47
2019-03-27T11:12:48.557Z,38.28
2019-03-27T11:13:48.542Z,38.47
2019-03-27T11:14:48.530Z,38.37
2019-03-27T11:15:48.611Z,38.56
2019-03-27T11:16:48.510Z,37.41
2019-03-27T11:17:48.497Z,37.51
2019-03-27T11:18:48.485Z,37.41
2019-03-27T11:19:48.475Z,37.51
2019-03-27T11:20:48.469Z,37.80
2019-03-27T11:21:48.457Z,38.18
2019-03-27T11:22:48.442Z,37.89
2019-03-27T11:23:48.430Z,37.80
2019-03-27T11:24:48.419Z,38.18
2019-03-27T11:25:48.412Z,38.16
2019-03-27T11:26:48.399Z,37.68
2019-03-27T11:27:48.387Z,38.54
2019-03-27T11:28:48.376Z,38.26
2019-03-27T11:29:48.366Z,38.54
2019-03-27T11:30:48.649Z,38.35
2019-03-27T11:31:48.342Z,37.87
2019-03-27T11:32:48.331Z,38.16
2019-03-27T11:33:48.317Z,37.87
2019-03-27T11:34:48.307Z,38.26
2019-03-27T11:35:51.545Z,38.16
2019-03-27T11:36:48.287Z,38.16
2019-03-27T11:37:48.274Z,38.64
2019-03-27T11:38:48.261Z,38.16
2019-03-27T11:39:48.255Z,38.26
2019-03-27T11:40:48.239Z,38.35
2019-03-27T11:41:48.226Z,38.45
2019-03-27T11:42:48.216Z,38.05
2019-03-27T11:43:54.756Z,38.05
2019-03-27T11:44:48.192Z,38.34
2019-03-27T11:45:48.894Z,38.14
2019-03-27T11:46:48.168Z,37.95
2019-03-27T11:47:48.157Z,38.14
2019-03-27T11:48:48.146Z,38.53
2019-03-27T11:49:48.135Z,38.43
2019-03-27T11:50:48.125Z,38.05
2019-03-27T11:51:48.111Z,38.34
2019-03-27T11:52:48.100Z,38.43
2019-03-27T11:53:48.087Z,38.05
2019-03-27T11:54:48.079Z,37.93
2019-03-27T11:55:48.065Z,38.12
2019-03-27T11:56:48.054Z,37.93
2019-03-27T11:57:48.043Z,38.62
2019-03-27T11:58:48.025Z,38.53
2019-03-27T11:59:53.767Z,38.81
2019-03-27T12:00:54.321Z,38.62
2019-03-27T12:01:47.994Z,38.43
2019-03-27T12:02:47.982Z,38.53
2019-03-27T12:03:47.977Z,38.62
2019-03-27T12:04:47.962Z,38.83
2019-03-27T12:05:48.016Z,38.64
2019-03-27T12:06:47.938Z,38.45
2019-03-27T12:07:47.924Z,38.45
2019-03-27T12:08:50.635Z,37.97
2019-03-27T12:09:47.903Z,38.35
2019-03-27T12:10:47.893Z,38.35
2019-03-27T12:11:47.884Z,37.70
2019-03-27T12:12:48.344Z,37.32
2019-03-27T12:13:47.857Z,37.22
2019-03-27T12:14:47.846Z,37.41
2019-03-27T12:15:47.838Z,37.20
2019-03-27T12:16:49.970Z,37.30
2019-03-27T12:17:47.815Z,37.89
2019-03-27T12:18:47.806Z,37.89
2019-03-27T12:19:47.794Z,38.28
2019-03-27T12:20:58.287Z,37.70
2019-03-27T12:21:47.776Z,37.13
2019-03-27T12:22:57.195Z,37.03
2019-03-27T12:23:47.759Z,37.24
2019-03-27T12:24:47.747Z,37.24
2019-03-27T12:25:47.735Z,37.34
2019-03-27T12:26:47.725Z,37.07
2019-03-27T12:27:47.715Z,37.18
2019-03-27T12:28:47.708Z,36.41
2019-03-27T12:29:47.695Z,36.90
2019-03-27T12:30:47.689Z,36.72
2019-03-27T12:31:47.679Z,36.15
2019-03-27T12:32:47.668Z,36.45
2019-03-27T12:33:47.660Z,36.27
2019-03-27T12:34:47.653Z,36.11
2019-03-27T12:35:47.645Z,35.36
2019-03-27T12:36:47.639Z,34.80
2019-03-27T12:37:47.632Z,34.26
2019-03-27T12:38:47.622Z,32.91
2019-03-27T12:39:47.619Z,33.02
2019-03-27T12:40:47.612Z,32.54
2019-03-27T12:41:47.644Z,32.15
2019-03-27T12:42:47.603Z,32.07
2019-03-27T12:43:47.598Z,32.07
2019-03-27T12:44:47.588Z,32.07
2019-03-27T12:45:47.589Z,31.59
2019-03-27T12:46:47.582Z,31.38
2019-03-27T12:47:47.576Z,31.18
2019-03-27T12:48:47.569Z,31.17
2019-03-27T12:49:47.567Z,31.06
2019-03-27T12:50:47.556Z,31.45
2019-03-27T12:51:47.552Z,31.81
2019-03-27T12:52:47.547Z,32.29